sensor_id;sensor_type;location;lat;lon;timestamp;P1;durP1;ratioP1;P2;durP2;ratioP2
23678;SDS011;12016;51.668;6.874;2022-10-16T00:04:50;10.25;;;6.07;;
23678;SDS011;12016;51.668;6.874;2022-10-16T00:10:57;9.43;;;5.70;;
23678;SDS011;12016;51.668;6.874;2022-10-16T00:17:00;9.57;;;5.45;;
23678;SDS011;12016;51.668;6.874;2022-10-16T00:23:03;8.50;;;5.40;;
23678;SDS011;12016;51.668;6.874;2022-10-16T00:29:06;11.55;;;5.40;;
23678;SDS011;12016;51.668;6.874;2022-10-16T00:35:08;9.40;;;5.43;;
23678;SDS011;12016;51.668;6.874;2022-10-16T00:41:11;11.65;;;5.72;;
23678;SDS011;12016;51.668;6.874;2022-10-16T00:47:17;10.55;;;5.60;;
23678;SDS011;12016;51.668;6.874;2022-10-16T00:53:40;9.00;;;5.40;;
23678;SDS011;12016;51.668;6.874;2022-10-16T00:59:42;9.35;;;5.38;;
23678;SDS011;12016;51.668;6.874;2022-10-16T01:05:45;8.50;;;5.50;;
23678;SDS011;12016;51.668;6.874;2022-10-16T01:12:13;6.10;;;4.88;;
23678;SDS011;12016;51.668;6.874;2022-10-16T01:18:23;7.60;;;4.90;;
23678;SDS011;12016;51.668;6.874;2022-10-16T01:24:48;7.22;;;4.80;;
23678;SDS011;12016;51.668;6.874;2022-10-16T01:30:52;5.85;;;4.25;;
23678;SDS011;12016;51.668;6.874;2022-10-16T01:37:00;7.28;;;4.50;;
23678;SDS011;12016;51.668;6.874;2022-10-16T01:43:11;5.82;;;4.20;;
23678;SDS011;12016;51.668;6.874;2022-10-16T01:49:16;5.80;;;4.40;;
23678;SDS011;12016;51.668;6.874;2022-10-16T01:55:24;6.32;;;4.50;;
23678;SDS011;12016;51.668;6.874;2022-10-16T02:01:32;5.97;;;4.13;;
23678;SDS011;12016;51.668;6.874;2022-10-16T02:07:36;6.60;;;4.50;;
23678;SDS011;12016;51.668;6.874;2022-10-16T02:13:39;9.25;;;5.15;;
23678;SDS011;12016;51.668;6.874;2022-10-16T02:19:47;5.60;;;4.00;;
23678;SDS011;12016;51.668;6.874;2022-10-16T02:25:52;6.32;;;4.40;;
23678;SDS011;12016;51.668;6.874;2022-10-16T02:31:59;6.43;;;4.50;;
23678;SDS011;12016;51.668;6.874;2022-10-16T02:38:04;6.22;;;4.68;;
23678;SDS011;12016;51.668;6.874;2022-10-16T02:44:07;6.43;;;4.50;;
23678;SDS011;12016;51.668;6.874;2022-10-16T02:50:09;6.32;;;4.70;;
23678;SDS011;12016;51.668;6.874;2022-10-16T02:56:11;8.43;;;4.60;;
23678;SDS011;12016;51.668;6.874;2022-10-16T03:02:13;7.10;;;4.60;;
23678;SDS011;12016;51.668;6.874;2022-10-16T03:08:14;7.82;;;4.20;;
23678;SDS011;12016;51.668;6.874;2022-10-16T03:14:16;6.20;;;4.82;;
23678;SDS011;12016;51.668;6.874;2022-10-16T03:20:18;6.00;;;4.57;;
23678;SDS011;12016;51.668;6.874;2022-10-16T03:26:20;5.82;;;4.30;;
23678;SDS011;12016;51.668;6.874;2022-10-16T03:32:22;7.43;;;4.13;;
23678;SDS011;12016;51.668;6.874;2022-10-16T03:38:26;5.43;;;3.83;;
23678;SDS011;12016;51.668;6.874;2022-10-16T03:44:28;5.35;;;3.60;;
23678;SDS011;12016;51.668;6.874;2022-10-16T03:50:30;5.88;;;3.55;;
23678;SDS011;12016;51.668;6.874;2022-10-16T03:56:32;4.05;;;3.25;;
23678;SDS011;12016;51.668;6.874;2022-10-16T04:02:34;3.67;;;3.10;;
23678;SDS011;12016;51.668;6.874;2022-10-16T04:08:36;5.05;;;3.08;;
23678;SDS011;12016;51.668;6.874;2022-10-16T04:14:38;4.68;;;2.80;;
23678;SDS011;12016;51.668;6.874;2022-10-16T04:20:40;4.43;;;2.80;;
23678;SDS011;12016;51.668;6.874;2022-10-16T04:26:42;3.25;;;2.40;;
23678;SDS011;12016;51.668;6.874;2022-10-16T04:32:47;4.88;;;2.67;;
23678;SDS011;12016;51.668;6.874;2022-10-16T04:38:50;6.20;;;2.55;;
23678;SDS011;12016;51.668;6.874;2022-10-16T04:44:51;3.05;;;2.40;;
23678;SDS011;12016;51.668;6.874;2022-10-16T04:50:54;4.43;;;2.35;;
23678;SDS011;12016;51.668;6.874;2022-10-16T04:56:56;5.10;;;2.63;;
23678;SDS011;12016;51.668;6.874;2022-10-16T05:02:58;3.65;;;2.33;;
23678;SDS011;12016;51.668;6.874;2022-10-16T05:09:00;4.47;;;2.40;;
23678;SDS011;12016;51.668;6.874;2022-10-16T05:15:03;3.70;;;2.60;;
23678;SDS011;12016;51.668;6.874;2022-10-16T05:21:05;4.47;;;2.40;;
23678;SDS011;12016;51.668;6.874;2022-10-16T05:27:07;6.65;;;2.60;;
23678;SDS011;12016;51.668;6.874;2022-10-16T05:33:09;4.20;;;2.80;;
23678;SDS011;12016;51.668;6.874;2022-10-16T05:39:11;9.85;;;2.95;;
23678;SDS011;12016;51.668;6.874;2022-10-16T05:45:15;5.28;;;2.80;;
23678;SDS011;12016;51.668;6.874;2022-10-16T05:51:17;4.88;;;3.10;;
23678;SDS011;12016;51.668;6.874;2022-10-16T05:57:19;4.20;;;3.05;;
23678;SDS011;12016;51.668;6.874;2022-10-16T06:03:20;5.05;;;3.00;;
23678;SDS011;12016;51.668;6.874;2022-10-16T06:09:23;3.80;;;2.67;;
23678;SDS011;12016;51.668;6.874;2022-10-16T06:15:25;5.82;;;2.60;;
23678;SDS011;12016;51.668;6.874;2022-10-16T06:21:28;4.88;;;2.50;;
23678;SDS011;12016;51.668;6.874;2022-10-16T06:27:30;7.88;;;2.70;;
23678;SDS011;12016;51.668;6.874;2022-10-16T06:33:32;4.57;;;2.50;;
23678;SDS011;12016;51.668;6.874;2022-10-16T06:39:35;4.53;;;2.47;;
23678;SDS011;12016;51.668;6.874;2022-10-16T06:45:37;5.72;;;2.65;;
23678;SDS011;12016;51.668;6.874;2022-10-16T06:51:39;5.97;;;2.88;;
23678;SDS011;12016;51.668;6.874;2022-10-16T06:57:43;3.88;;;3.05;;
23678;SDS011;12016;51.668;6.874;2022-10-16T07:03:45;4.40;;;3.00;;
23678;SDS011;12016;51.668;6.874;2022-10-16T07:09:47;5.00;;;3.15;;
23678;SDS011;12016;51.668;6.874;2022-10-16T07:15:49;3.92;;;2.80;;
23678;SDS011;12016;51.668;6.874;2022-10-16T07:21:51;4.32;;;2.55;;
23678;SDS011;12016;51.668;6.874;2022-10-16T07:27:53;3.97;;;2.20;;
23678;SDS011;12016;51.668;6.874;2022-10-16T07:33:58;3.92;;;2.00;;
23678;SDS011;12016;51.668;6.874;2022-10-16T07:40:01;3.40;;;2.10;;
23678;SDS011;12016;51.668;6.874;2022-10-16T07:46:03;4.18;;;2.00;;
23678;SDS011;12016;51.668;6.874;2022-10-16T07:52:05;6.43;;;2.40;;
23678;SDS011;12016;51.668;6.874;2022-10-16T07:58:07;3.42;;;2.30;;
23678;SDS011;12016;51.668;6.874;2022-10-16T08:04:09;3.50;;;2.30;;
23678;SDS011;12016;51.668;6.874;2022-10-16T08:10:14;2.22;;;1.90;;
23678;SDS011;12016;51.668;6.874;2022-10-16T08:16:18;2.83;;;2.13;;
23678;SDS011;12016;51.668;6.874;2022-10-16T08:22:22;5.75;;;2.45;;
23678;SDS011;12016;51.668;6.874;2022-10-16T08:28:24;2.08;;;1.80;;
23678;SDS011;12016;51.668;6.874;2022-10-16T08:34:26;2.28;;;1.83;;
23678;SDS011;12016;51.668;6.874;2022-10-16T08:40:29;3.78;;;1.90;;
23678;SDS011;12016;51.668;6.874;2022-10-16T08:52:47;2.80;;;1.92;;
23678;SDS011;12016;51.668;6.874;2022-10-16T08:58:54;4.65;;;1.70;;
23678;SDS011;12016;51.668;6.874;2022-10-16T09:11:26;3.70;;;1.92;;
23678;SDS011;12016;51.668;6.874;2022-10-16T09:17:48;3.92;;;1.75;;
23678;SDS011;12016;51.668;6.874;2022-10-16T09:23:58;2.28;;;1.60;;
23678;SDS011;12016;51.668;6.874;2022-10-16T09:30:10;3.00;;;2.00;;
23678;SDS011;12016;51.668;6.874;2022-10-16T09:36:20;2.28;;;1.45;;
23678;SDS011;12016;51.668;6.874;2022-10-16T09:42:27;3.63;;;1.60;;
23678;SDS011;12016;51.668;6.874;2022-10-16T10:00:57;4.07;;;1.20;;
23678;SDS011;12016;51.668;6.874;2022-10-16T10:06:59;2.08;;;1.40;;
23678;SDS011;12016;51.668;6.874;2022-10-16T10:13:01;1.95;;;1.00;;
23678;SDS011;12016;51.668;6.874;2022-10-16T10:19:03;2.42;;;0.90;;
23678;SDS011;12016;51.668;6.874;2022-10-16T10:31:20;0.80;;;0.73;;
23678;SDS011;12016;51.668;6.874;2022-10-16T10:37:35;1.00;;;0.55;;
23678;SDS011;12016;51.668;6.874;2022-10-16T10:50:25;1.10;;;0.90;;
23678;SDS011;12016;51.668;6.874;2022-10-16T10:56:43;1.50;;;0.95;;
23678;SDS011;12016;51.668;6.874;2022-10-16T11:03:12;1.20;;;0.63;;
23678;SDS011;12016;51.668;6.874;2022-10-16T11:09:39;0.90;;;0.70;;
23678;SDS011;12016;51.668;6.874;2022-10-16T11:15:46;0.65;;;0.65;;
23678;SDS011;12016;51.668;6.874;2022-10-16T11:28:29;1.63;;;1.02;;
23678;SDS011;12016;51.668;6.874;2022-10-16T11:34:48;1.60;;;1.00;;
23678;SDS011;12016;51.668;6.874;2022-10-16T11:40:56;1.92;;;0.82;;
23678;SDS011;12016;51.668;6.874;2022-10-16T12:00:02;1.63;;;0.70;;
23678;SDS011;12016;51.668;6.874;2022-10-16T12:12:26;1.23;;;0.73;;
23678;SDS011;12016;51.668;6.874;2022-10-16T12:18:39;1.75;;;0.70;;
23678;SDS011;12016;51.668;6.874;2022-10-16T12:24:46;1.85;;;0.80;;
23678;SDS011;12016;51.668;6.874;2022-10-16T12:31:03;3.33;;;0.80;;
23678;SDS011;12016;51.668;6.874;2022-10-16T12:49:48;1.67;;;0.80;;
23678;SDS011;12016;51.668;6.874;2022-10-16T12:55:54;1.88;;;1.02;;
23678;SDS011;12016;51.668;6.874;2022-10-16T13:15:07;2.20;;;1.20;;
23678;SDS011;12016;51.668;6.874;2022-10-16T13:21:26;2.10;;;0.80;;
23678;SDS011;12016;51.668;6.874;2022-10-16T13:33:57;1.80;;;0.88;;
23678;SDS011;12016;51.668;6.874;2022-10-16T13:40:14;2.08;;;1.10;;
23678;SDS011;12016;51.668;6.874;2022-10-16T13:46:22;1.30;;;0.80;;
23678;SDS011;12016;51.668;6.874;2022-10-16T13:52:25;2.38;;;1.08;;
23678;SDS011;12016;51.668;6.874;2022-10-16T13:58:28;1.60;;;1.50;;
23678;SDS011;12016;51.668;6.874;2022-10-16T14:04:31;1.55;;;0.90;;
23678;SDS011;12016;51.668;6.874;2022-10-16T14:10:34;1.67;;;0.95;;
23678;SDS011;12016;51.668;6.874;2022-10-16T14:16:36;2.55;;;1.00;;
23678;SDS011;12016;51.668;6.874;2022-10-16T14:22:43;1.05;;;0.90;;
23678;SDS011;12016;51.668;6.874;2022-10-16T14:28:45;2.75;;;0.90;;
23678;SDS011;12016;51.668;6.874;2022-10-16T14:34:52;1.50;;;0.90;;
23678;SDS011;12016;51.668;6.874;2022-10-16T14:40:57;3.38;;;1.00;;
23678;SDS011;12016;51.668;6.874;2022-10-16T14:47:07;1.63;;;0.93;;
23678;SDS011;12016;51.668;6.874;2022-10-16T14:53:14;1.52;;;1.05;;
23678;SDS011;12016;51.668;6.874;2022-10-16T14:59:17;1.20;;;0.90;;
23678;SDS011;12016;51.668;6.874;2022-10-16T15:11:28;1.88;;;0.90;;
23678;SDS011;12016;51.668;6.874;2022-10-16T15:17:30;1.38;;;0.90;;
23678;SDS011;12016;51.668;6.874;2022-10-16T15:23:33;2.17;;;1.00;;
23678;SDS011;12016;51.668;6.874;2022-10-16T15:29:35;2.53;;;1.20;;
23678;SDS011;12016;51.668;6.874;2022-10-16T15:35:37;2.05;;;1.13;;
23678;SDS011;12016;51.668;6.874;2022-10-16T15:41:38;1.83;;;1.17;;
23678;SDS011;12016;51.668;6.874;2022-10-16T15:47:41;3.60;;;1.50;;
23678;SDS011;12016;51.668;6.874;2022-10-16T15:53:43;3.13;;;1.40;;
23678;SDS011;12016;51.668;6.874;2022-10-16T15:59:48;2.95;;;1.10;;
23678;SDS011;12016;51.668;6.874;2022-10-16T16:05:50;58.17;;;2.33;;
23678;SDS011;12016;51.668;6.874;2022-10-16T16:11:52;2.38;;;1.33;;
23678;SDS011;12016;51.668;6.874;2022-10-16T16:17:54;4.53;;;1.67;;
23678;SDS011;12016;51.668;6.874;2022-10-16T16:23:56;5.15;;;1.60;;
23678;SDS011;12016;51.668;6.874;2022-10-16T16:29:57;3.30;;;1.27;;
23678;SDS011;12016;51.668;6.874;2022-10-16T16:36:00;2.95;;;1.88;;
23678;SDS011;12016;51.668;6.874;2022-10-16T16:42:03;4.38;;;2.03;;
23678;SDS011;12016;51.668;6.874;2022-10-16T16:48:07;8.90;;;4.18;;
23678;SDS011;12016;51.668;6.874;2022-10-16T16:54:09;3.22;;;1.90;;
23678;SDS011;12016;51.668;6.874;2022-10-16T17:00:13;2.95;;;2.03;;
23678;SDS011;12016;51.668;6.874;2022-10-16T17:06:15;3.42;;;2.20;;
23678;SDS011;12016;51.668;6.874;2022-10-16T17:12:19;6.30;;;4.82;;
23678;SDS011;12016;51.668;6.874;2022-10-16T17:18:21;7.13;;;4.70;;
23678;SDS011;12016;51.668;6.874;2022-10-16T17:24:24;10.45;;;7.60;;
23678;SDS011;12016;51.668;6.874;2022-10-16T17:30:25;4.18;;;3.10;;
23678;SDS011;12016;51.668;6.874;2022-10-16T17:36:27;4.45;;;2.40;;
23678;SDS011;12016;51.668;6.874;2022-10-16T17:42:33;6.00;;;2.55;;
23678;SDS011;12016;51.668;6.874;2022-10-16T17:48:41;4.15;;;2.15;;
23678;SDS011;12016;51.668;6.874;2022-10-16T17:54:46;6.07;;;2.10;;
23678;SDS011;12016;51.668;6.874;2022-10-16T18:00:51;3.55;;;2.63;;
23678;SDS011;12016;51.668;6.874;2022-10-16T18:06:57;3.90;;;3.10;;
23678;SDS011;12016;51.668;6.874;2022-10-16T18:13:04;5.35;;;3.95;;
23678;SDS011;12016;51.668;6.874;2022-10-16T18:19:08;4.40;;;3.67;;
23678;SDS011;12016;51.668;6.874;2022-10-16T18:25:11;6.43;;;5.00;;
23678;SDS011;12016;51.668;6.874;2022-10-16T18:31:14;6.13;;;5.30;;
23678;SDS011;12016;51.668;6.874;2022-10-16T18:37:18;6.80;;;3.90;;
23678;SDS011;12016;51.668;6.874;2022-10-16T18:43:20;9.10;;;5.30;;
23678;SDS011;12016;51.668;6.874;2022-10-16T18:49:22;9.43;;;6.82;;
23678;SDS011;12016;51.668;6.874;2022-10-16T18:55:25;5.97;;;4.80;;
23678;SDS011;12016;51.668;6.874;2022-10-16T19:01:32;9.65;;;8.63;;
23678;SDS011;12016;51.668;6.874;2022-10-16T19:07:36;4.85;;;4.20;;
23678;SDS011;12016;51.668;6.874;2022-10-16T19:13:38;6.45;;;4.70;;
23678;SDS011;12016;51.668;6.874;2022-10-16T19:19:40;5.47;;;3.75;;
23678;SDS011;12016;51.668;6.874;2022-10-16T19:25:41;7.68;;;4.35;;
23678;SDS011;12016;51.668;6.874;2022-10-16T19:31:43;6.45;;;3.85;;
23678;SDS011;12016;51.668;6.874;2022-10-16T19:37:48;8.48;;;4.30;;
23678;SDS011;12016;51.668;6.874;2022-10-16T19:43:51;6.03;;;4.30;;
23678;SDS011;12016;51.668;6.874;2022-10-16T19:49:53;6.78;;;4.00;;
23678;SDS011;12016;51.668;6.874;2022-10-16T19:55:55;5.68;;;4.68;;
23678;SDS011;12016;51.668;6.874;2022-10-16T20:01:57;5.22;;;4.32;;
23678;SDS011;12016;51.668;6.874;2022-10-16T20:07:59;6.15;;;4.45;;
23678;SDS011;12016;51.668;6.874;2022-10-16T20:14:01;6.13;;;4.40;;
23678;SDS011;12016;51.668;6.874;2022-10-16T20:20:04;5.18;;;4.28;;
23678;SDS011;12016;51.668;6.874;2022-10-16T20:26:06;5.15;;;4.43;;
23678;SDS011;12016;51.668;6.874;2022-10-16T20:32:09;6.97;;;4.57;;
23678;SDS011;12016;51.668;6.874;2022-10-16T20:38:11;5.90;;;4.40;;
23678;SDS011;12016;51.668;6.874;2022-10-16T20:44:14;5.55;;;4.70;;
23678;SDS011;12016;51.668;6.874;2022-10-16T20:50:16;8.98;;;5.00;;
23678;SDS011;12016;51.668;6.874;2022-10-16T20:56:18;6.95;;;5.03;;
23678;SDS011;12016;51.668;6.874;2022-10-16T21:02:20;7.53;;;4.80;;
23678;SDS011;12016;51.668;6.874;2022-10-16T21:08:23;6.72;;;4.95;;
23678;SDS011;12016;51.668;6.874;2022-10-16T21:14:25;7.32;;;5.20;;
23678;SDS011;12016;51.668;6.874;2022-10-16T21:20:27;7.90;;;4.65;;
23678;SDS011;12016;51.668;6.874;2022-10-16T21:26:30;7.22;;;4.95;;
23678;SDS011;12016;51.668;6.874;2022-10-16T21:32:39;6.57;;;4.55;;
23678;SDS011;12016;51.668;6.874;2022-10-16T21:38:41;5.75;;;4.78;;
23678;SDS011;12016;51.668;6.874;2022-10-16T21:44:44;7.15;;;5.30;;
23678;SDS011;12016;51.668;6.874;2022-10-16T21:50:47;8.25;;;5.30;;
23678;SDS011;12016;51.668;6.874;2022-10-16T21:56:49;8.27;;;5.28;;
23678;SDS011;12016;51.668;6.874;2022-10-16T22:02:52;6.60;;;4.85;;
23678;SDS011;12016;51.668;6.874;2022-10-16T22:08:59;8.40;;;5.18;;
23678;SDS011;12016;51.668;6.874;2022-10-16T22:15:01;7.80;;;5.30;;
23678;SDS011;12016;51.668;6.874;2022-10-16T22:21:06;7.20;;;5.57;;
23678;SDS011;12016;51.668;6.874;2022-10-16T22:27:10;8.45;;;5.32;;
23678;SDS011;12016;51.668;6.874;2022-10-16T22:33:13;7.85;;;5.32;;
23678;SDS011;12016;51.668;6.874;2022-10-16T22:39:15;7.97;;;5.28;;
23678;SDS011;12016;51.668;6.874;2022-10-16T22:45:18;6.88;;;5.10;;
23678;SDS011;12016;51.668;6.874;2022-10-16T22:51:23;8.38;;;5.55;;
23678;SDS011;12016;51.668;6.874;2022-10-16T22:57:29;6.57;;;5.38;;
23678;SDS011;12016;51.668;6.874;2022-10-16T23:03:32;6.45;;;5.43;;
23678;SDS011;12016;51.668;6.874;2022-10-16T23:09:34;6.60;;;5.30;;
23678;SDS011;12016;51.668;6.874;2022-10-16T23:15:40;6.40;;;5.10;;
23678;SDS011;12016;51.668;6.874;2022-10-16T23:21:45;7.90;;;6.15;;
23678;SDS011;12016;51.668;6.874;2022-10-16T23:27:47;7.18;;;5.90;;
23678;SDS011;12016;51.668;6.874;2022-10-16T23:33:57;6.50;;;5.90;;
23678;SDS011;12016;51.668;6.874;2022-10-16T23:39:59;6.03;;;5.43;;
23678;SDS011;12016;51.668;6.874;2022-10-16T23:46:02;6.82;;;5.43;;
23678;SDS011;12016;51.668;6.874;2022-10-16T23:52:04;7.32;;;5.38;;
23678;SDS011;12016;51.668;6.874;2022-10-16T23:58:08;6.63;;;5.28;;
